German Valley, Iowa
Current Conditions -  °F | °C
As of 8:15 AM on Thursday 27 Nov 2014 (Local Time) from KAXA Reporting Station
Clear Clear  
Wind Chill: -26°   Ceiling: Unl
Heat Index: -11°   Visibility: 10mi
Dew Point: -17°   Wind: 7mph
Humidity: 77%   Direction: 350°N
Pressure: 30.5"   Gusts: NA
Location:  43.2557°N, 94.0295°W
Report Text: KAXA 271415Z AUTO 35006KT 10SM CLR M24/M27 A3050 RMK AO2
Loading
Personal Weather Stations






























Interactive Weather Map New forecast layout! Learn more

10-Day Weather Forecast

Advertisements
Track Severe Weather on mobile